Preview of NWS' New Version of Forecast
This preview is not operational and should not be used for support decisions.

Terminal Aerodrome Forecast (TAF)

Issued by National Weather Service (NWS)

                            
000
FTUS42 KMFL 150350 AAB
TAFMIA
TAF AMD
KMIA 150350Z 1504/1606 34005KT P6SM BKN040
     FM151400 35006KT P6SM SCT035
     FM151700 01008KT P6SM SCT035=